createdAt,value
2023-01-25T00:00:34.590Z,39.90
2023-01-25T00:01:34.603Z,42.30
2023-01-25T00:02:34.628Z,41.10
2023-01-25T00:03:34.704Z,41.10
2023-01-25T00:04:34.591Z,40.20
2023-01-25T00:05:34.707Z,37.30
2023-01-25T00:06:34.522Z,40.00
2023-01-25T00:07:34.584Z,40.40
2023-01-25T00:08:34.508Z,38.90
2023-01-25T00:09:34.478Z,39.60
2023-01-25T00:10:34.554Z,41.70
2023-01-25T00:11:34.455Z,40.60
2023-01-25T00:12:35.341Z,39.70
2023-01-25T00:13:34.780Z,40.00
2023-01-25T00:14:34.474Z,41.10
2023-01-25T00:15:34.452Z,40.10
2023-01-25T00:16:34.465Z,43.30
2023-01-25T00:17:34.438Z,41.80
2023-01-25T00:18:34.406Z,40.80
2023-01-25T00:19:34.419Z,39.90
2023-01-25T00:20:34.388Z,40.90
2023-01-25T00:21:34.528Z,43.70
2023-01-25T00:22:34.366Z,41.20
2023-01-25T00:23:34.394Z,41.90
2023-01-25T00:24:34.388Z,40.40
2023-01-25T00:25:34.372Z,39.90
2023-01-25T00:26:34.342Z,40.60
2023-01-25T00:27:34.389Z,43.00
2023-01-25T00:28:34.307Z,41.10
2023-01-25T00:29:34.327Z,42.10
2023-01-25T00:30:34.264Z,41.60
2023-01-25T00:31:34.461Z,42.40
2023-01-25T00:32:34.461Z,45.20
2023-01-25T00:33:34.258Z,43.60
2023-01-25T00:34:34.237Z,46.80
2023-01-25T00:35:34.243Z,42.00
2023-01-25T00:36:34.219Z,44.50
2023-01-25T00:37:34.274Z,44.00
2023-01-25T00:38:34.334Z,46.50
2023-01-25T00:39:34.180Z,42.60
2023-01-25T00:40:34.188Z,43.50
2023-01-25T00:41:34.171Z,44.20
2023-01-25T00:42:34.164Z,44.60
2023-01-25T00:43:34.209Z,44.20
2023-01-25T00:44:34.198Z,44.00
2023-01-25T00:45:34.307Z,43.50
2023-01-25T00:46:34.097Z,44.60
2023-01-25T00:47:34.109Z,46.80
2023-01-25T00:48:35.000Z,47.10
2023-01-25T00:49:34.116Z,45.30
2023-01-25T00:50:34.080Z,43.10
2023-01-25T00:51:34.087Z,44.30
2023-01-25T00:52:34.042Z,46.40
2023-01-25T00:53:34.119Z,47.40
2023-01-25T00:54:34.024Z,49.80
2023-01-25T00:55:34.095Z,45.60
2023-01-25T00:56:34.014Z,44.60
2023-01-25T00:57:33.992Z,45.10
2023-01-25T00:58:34.057Z,45.80
2023-01-25T00:59:34.315Z,46.50
2023-01-25T01:00:33.958Z,46.50
2023-01-25T01:01:33.991Z,46.40
2023-01-25T01:02:34.032Z,46.30
2023-01-25T01:03:33.949Z,47.70
2023-01-25T01:04:34.001Z,47.30
2023-01-25T01:05:33.991Z,45.40
2023-01-25T01:06:33.954Z,47.40
2023-01-25T01:07:34.379Z,45.40
2023-01-25T01:08:33.880Z,46.30
2023-01-25T01:09:34.219Z,46.40
2023-01-25T01:10:33.881Z,47.70
2023-01-25T01:11:34.095Z,45.30
2023-01-25T01:12:33.834Z,46.00
2023-01-25T01:13:33.847Z,42.90
2023-01-25T01:14:33.875Z,45.00
2023-01-25T01:15:33.820Z,44.60
2023-01-25T01:16:33.932Z,43.90
2023-01-25T01:17:33.804Z,44.80
2023-01-25T01:18:33.784Z,45.90
2023-01-25T01:19:33.840Z,47.00
2023-01-25T01:20:33.774Z,45.50
2023-01-25T01:21:33.780Z,46.10
2023-01-25T01:22:33.812Z,41.60
2023-01-25T01:23:33.727Z,43.50
2023-01-25T01:24:34.136Z,44.60
2023-01-25T01:25:33.708Z,46.20
2023-01-25T01:26:33.858Z,45.70
2023-01-25T01:27:33.723Z,44.80
2023-01-25T01:28:33.753Z,43.10
2023-01-25T01:29:33.721Z,45.50
2023-01-25T01:30:33.888Z,41.50
2023-01-25T01:31:33.796Z,42.80
2023-01-25T01:32:33.787Z,42.80
2023-01-25T01:33:35.309Z,45.50
2023-01-25T01:34:33.615Z,42.00
2023-01-25T01:35:33.672Z,41.60
2023-01-25T01:36:33.641Z,43.90
2023-01-25T01:37:33.710Z,40.90
2023-01-25T01:38:33.593Z,45.80
2023-01-25T01:39:33.717Z,43.50
2023-01-25T01:40:33.557Z,42.60
2023-01-25T01:41:33.570Z,42.30
2023-01-25T01:42:33.600Z,41.40
2023-01-25T01:43:33.557Z,42.50
2023-01-25T01:44:33.646Z,42.70
2023-01-25T01:45:33.733Z,43.70
2023-01-25T01:46:34.205Z,45.40
2023-01-25T01:47:33.501Z,43.80
2023-01-25T01:48:33.499Z,43.70
2023-01-25T01:49:33.485Z,45.60
2023-01-25T01:50:33.448Z,44.40
2023-01-25T01:51:33.499Z,45.10
2023-01-25T01:52:33.490Z,43.70
2023-01-25T01:53:33.438Z,43.60
2023-01-25T01:54:33.438Z,43.70
2023-01-25T01:55:33.402Z,43.20
2023-01-25T01:56:33.430Z,40.60
2023-01-25T01:57:33.417Z,42.10
2023-01-25T01:58:33.403Z,43.50
2023-01-25T01:59:33.394Z,41.20
2023-01-25T02:00:33.340Z,41.10
2023-01-25T02:04:30.911Z,41.60
2023-01-25T02:05:30.605Z,44.10
2023-01-25T02:06:30.121Z,41.60
2023-01-25T02:07:30.078Z,42.20
2023-01-25T02:08:30.145Z,40.40
2023-01-25T02:09:30.049Z,41.40
2023-01-25T02:10:30.086Z,43.20
2023-01-25T02:11:30.055Z,41.70
2023-01-25T02:12:30.075Z,44.70
2023-01-25T02:13:30.063Z,42.20
2023-01-25T02:14:30.028Z,42.10
2023-01-25T02:15:29.976Z,40.20
2023-01-25T02:16:29.988Z,41.40
2023-01-25T02:17:29.998Z,41.40
2023-01-25T02:18:30.017Z,42.20
2023-01-25T02:19:30.002Z,41.60
2023-01-25T02:20:29.987Z,41.20
2023-01-25T02:21:29.956Z,42.20
2023-01-25T02:22:29.917Z,43.80
2023-01-25T02:23:29.988Z,43.30
2023-01-25T02:24:29.937Z,41.10
2023-01-25T02:25:30.035Z,41.70
2023-01-25T02:26:29.931Z,43.50
2023-01-25T02:27:29.892Z,44.90
2023-01-25T02:28:29.947Z,43.70
2023-01-25T02:29:29.872Z,44.80
2023-01-25T02:30:29.980Z,42.50
2023-01-25T02:31:29.872Z,43.40
2023-01-25T02:32:29.858Z,43.80
2023-01-25T02:33:29.824Z,46.80
2023-01-25T02:34:29.904Z,45.20
2023-01-25T02:35:29.875Z,44.80
2023-01-25T02:36:29.768Z,47.20
2023-01-25T02:37:29.832Z,48.80
2023-01-25T02:38:29.756Z,46.00
2023-01-25T02:39:29.748Z,48.10
2023-01-25T02:40:29.796Z,47.40
2023-01-25T02:41:29.725Z,45.50
2023-01-25T02:42:29.702Z,47.50
2023-01-25T02:43:29.745Z,48.00
2023-01-25T02:44:29.683Z,44.70
2023-01-25T02:45:29.789Z,43.10
2023-01-25T02:46:29.802Z,47.30
2023-01-25T02:47:29.698Z,46.30
2023-01-25T02:48:29.682Z,47.50
2023-01-25T02:49:29.659Z,46.10
2023-01-25T02:50:29.742Z,44.70
2023-01-25T02:51:29.737Z,46.80
2023-01-25T02:52:29.613Z,47.10
2023-01-25T02:53:29.638Z,45.60
2023-01-25T02:54:29.675Z,45.30
2023-01-25T02:55:29.629Z,45.10
2023-01-25T02:56:29.585Z,44.70
2023-01-25T02:57:29.665Z,44.80
2023-01-25T02:58:29.535Z,46.60
2023-01-25T02:59:29.591Z,46.40
2023-01-25T03:00:29.575Z,46.70
2023-01-25T03:01:29.697Z,44.80
2023-01-25T03:02:29.547Z,46.50
2023-01-25T03:03:29.565Z,44.30
2023-01-25T03:04:29.629Z,44.40
2023-01-25T03:05:29.486Z,43.10
2023-01-25T03:06:29.528Z,44.60
2023-01-25T03:07:29.474Z,45.30
2023-01-25T03:08:29.519Z,42.70
2023-01-25T03:09:29.458Z,43.70
2023-01-25T03:10:29.482Z,45.80
2023-01-25T03:11:29.475Z,44.70
2023-01-25T03:12:29.425Z,45.60
2023-01-25T03:13:29.438Z,43.30
2023-01-25T03:14:29.486Z,45.10
2023-01-25T03:15:29.531Z,44.90
2023-01-25T03:16:29.551Z,43.00
2023-01-25T03:17:29.504Z,41.20
2023-01-25T03:18:29.413Z,44.00
2023-01-25T03:19:29.384Z,43.20
2023-01-25T03:20:29.379Z,42.00
2023-01-25T03:21:29.405Z,45.20
2023-01-25T03:22:29.353Z,45.10
2023-01-25T03:23:29.333Z,44.70
2023-01-25T03:24:29.416Z,42.80
2023-01-25T03:25:29.315Z,40.40
2023-01-25T03:26:29.290Z,46.10
2023-01-25T03:27:29.312Z,43.20
2023-01-25T03:28:29.248Z,42.10
2023-01-25T03:29:29.322Z,44.50
2023-01-25T03:30:29.237Z,45.10
2023-01-25T03:31:29.365Z,44.40
2023-01-25T03:32:29.266Z,38.80
2023-01-25T03:33:29.214Z,40.90
2023-01-25T03:34:29.250Z,41.80
2023-01-25T03:35:29.203Z,40.20
2023-01-25T03:36:29.294Z,43.00
2023-01-25T03:37:29.223Z,41.60
2023-01-25T03:38:29.209Z,41.00
2023-01-25T03:39:29.182Z,44.70
2023-01-25T03:40:29.104Z,44.50
2023-01-25T03:41:29.219Z,44.30
2023-01-25T03:42:29.138Z,44.60
2023-01-25T03:43:29.093Z,43.80
2023-01-25T03:44:29.122Z,41.70
2023-01-25T03:45:29.177Z,43.80
2023-01-25T03:46:29.121Z,47.50
2023-01-25T03:47:29.111Z,45.60
2023-01-25T03:48:29.100Z,47.20
2023-01-25T03:49:29.114Z,44.40
2023-01-25T03:50:29.089Z,42.50
2023-01-25T03:51:29.026Z,46.30
2023-01-25T03:52:29.063Z,44.00
2023-01-25T03:53:28.997Z,45.10
2023-01-25T03:54:29.150Z,45.30
2023-01-25T03:55:29.029Z,45.20
2023-01-25T03:56:29.010Z,45.10
2023-01-25T03:57:29.024Z,45.60
2023-01-25T03:58:28.989Z,44.90
2023-01-25T03:59:28.988Z,46.40
2023-01-25T04:00:28.976Z,43.10
2023-01-25T04:01:28.983Z,46.40
2023-01-25T04:02:28.990Z,45.30
2023-01-25T04:03:30.346Z,45.40
2023-01-25T04:04:28.945Z,43.80
2023-01-25T04:05:28.856Z,45.30
2023-01-25T04:06:28.852Z,45.00
2023-01-25T04:07:28.892Z,46.30
2023-01-25T04:08:28.975Z,46.30
2023-01-25T04:09:28.941Z,48.10
2023-01-25T04:10:28.843Z,49.60
2023-01-25T04:11:28.888Z,49.50
2023-01-25T04:12:28.886Z,51.00
2023-01-25T04:13:28.790Z,50.70
2023-01-25T04:14:43.711Z,52.30
2023-01-25T04:15:28.788Z,49.70
2023-01-25T04:16:28.900Z,51.00
2023-01-25T04:17:28.928Z,50.30
2023-01-25T04:18:28.759Z,51.00
2023-01-25T04:19:28.774Z,54.00
2023-01-25T04:20:28.826Z,51.40
2023-01-25T04:21:28.729Z,49.50
2023-01-25T04:22:28.723Z,51.40
2023-01-25T04:23:28.796Z,51.80
2023-01-25T04:24:28.701Z,51.60
2023-01-25T04:25:28.724Z,53.00
2023-01-25T04:26:28.684Z,57.30
2023-01-25T04:27:28.755Z,57.60
2023-01-25T04:28:28.674Z,53.80
2023-01-25T04:29:40.141Z,56.10
2023-01-25T04:30:28.672Z,55.00
2023-01-25T04:31:28.753Z,60.10
2023-01-25T04:32:28.789Z,55.70
2023-01-25T04:33:28.626Z,53.40
2023-01-25T04:34:28.573Z,54.00
2023-01-25T04:35:28.584Z,57.10
2023-01-25T04:36:28.604Z,56.70
2023-01-25T04:37:28.573Z,66.10
2023-01-25T04:38:28.580Z,70.90
2023-01-25T04:39:28.542Z,80.70
2023-01-25T04:40:28.522Z,84.30
2023-01-25T04:41:28.521Z,84.50
2023-01-25T04:42:28.533Z,85.80
2023-01-25T04:43:28.557Z,87.80
2023-01-25T04:44:28.577Z,79.20
2023-01-25T04:45:28.569Z,81.40
2023-01-25T04:46:28.509Z,82.90
2023-01-25T04:47:28.499Z,83.30
2023-01-25T04:48:28.577Z,80.00
2023-01-25T04:49:28.474Z,76.60
2023-01-25T04:50:28.647Z,76.50
2023-01-25T04:51:28.475Z,81.40
2023-01-25T04:52:28.549Z,81.80
2023-01-25T04:53:28.494Z,86.20
2023-01-25T04:54:28.464Z,87.00
2023-01-25T04:55:28.409Z,91.70
2023-01-25T04:56:28.352Z,87.00
2023-01-25T04:57:28.382Z,90.40
2023-01-25T04:58:28.337Z,90.70
2023-01-25T04:59:28.464Z,85.40
2023-01-25T05:00:28.368Z,89.60
2023-01-25T05:01:28.373Z,88.10
2023-01-25T05:02:28.388Z,89.60
2023-01-25T05:03:28.395Z,93.80
2023-01-25T05:04:28.319Z,98.80
2023-01-25T05:05:28.425Z,104.30
2023-01-25T05:06:28.300Z,103.90
2023-01-25T05:07:28.247Z,107.10
2023-01-25T05:08:28.234Z,104.70
2023-01-25T05:09:28.289Z,106.70
2023-01-25T05:10:28.244Z,106.30
2023-01-25T05:11:28.214Z,106.30
2023-01-25T05:12:28.278Z,102.80
2023-01-25T05:13:28.227Z,104.90
2023-01-25T05:14:28.193Z,110.40
2023-01-25T05:15:28.228Z,104.80
2023-01-25T05:16:28.233Z,112.20
2023-01-25T05:17:28.249Z,104.30
2023-01-25T05:18:35.755Z,101.20
2023-01-25T05:19:28.174Z,107.80
2023-01-25T05:20:28.126Z,106.90
2023-01-25T05:21:28.141Z,108.70
2023-01-25T05:22:28.155Z,107.90
2023-01-25T05:23:28.100Z,110.50
2023-01-25T05:24:28.135Z,111.50
2023-01-25T05:25:28.127Z,115.00
2023-01-25T05:26:28.061Z,113.10
2023-01-25T05:27:28.095Z,111.80
2023-01-25T05:28:28.039Z,114.80
2023-01-25T05:29:28.081Z,114.50
2023-01-25T05:30:28.047Z,111.30
2023-01-25T05:31:28.135Z,113.30
2023-01-25T05:32:28.113Z,120.10
2023-01-25T05:33:28.079Z,115.60
2023-01-25T05:34:27.971Z,120.40
2023-01-25T05:35:27.987Z,114.60
2023-01-25T05:36:27.991Z,114.40
2023-01-25T05:37:27.986Z,119.00
2023-01-25T05:38:27.963Z,116.30
2023-01-25T05:39:27.960Z,116.20
2023-01-25T05:40:27.959Z,113.60
2023-01-25T05:41:27.941Z,113.80
2023-01-25T05:42:27.894Z,115.10
2023-01-25T05:43:27.951Z,111.80
2023-01-25T05:44:28.048Z,111.90
2023-01-25T05:45:27.910Z,102.50
2023-01-25T05:46:27.881Z,106.80
2023-01-25T05:47:27.894Z,107.00
2023-01-25T05:48:27.827Z,112.90
2023-01-25T05:49:27.891Z,112.40
2023-01-25T05:50:27.872Z,99.70
2023-01-25T05:51:27.856Z,108.10
2023-01-25T05:52:27.857Z,104.70
2023-01-25T05:53:27.784Z,104.10
2023-01-25T05:54:27.803Z,105.60
2023-01-25T05:55:27.887Z,108.80
2023-01-25T05:56:27.771Z,103.70
2023-01-25T05:57:27.775Z,100.70
2023-01-25T05:58:27.791Z,95.30
2023-01-25T05:59:27.753Z,88.30
2023-01-25T06:00:27.694Z,73.40
2023-01-25T06:01:27.825Z,71.60
2023-01-25T06:02:27.910Z,76.50
2023-01-25T06:03:27.869Z,73.50
2023-01-25T06:04:27.719Z,71.50
2023-01-25T06:05:27.683Z,73.00
2023-01-25T06:06:27.743Z,73.40
2023-01-25T06:07:27.699Z,71.70
2023-01-25T06:08:27.671Z,72.20
2023-01-25T06:09:27.633Z,74.70
2023-01-25T06:10:27.624Z,79.70
2023-01-25T06:11:27.698Z,75.50
2023-01-25T06:12:29.444Z,79.70
2023-01-25T06:13:27.707Z,76.80
2023-01-25T06:14:27.621Z,76.80
2023-01-25T06:15:27.594Z,79.00
2023-01-25T06:16:27.613Z,77.30
2023-01-25T06:17:27.549Z,80.10
2023-01-25T06:18:28.691Z,79.40
2023-01-25T06:19:27.583Z,79.80
2023-01-25T06:20:27.622Z,81.10
2023-01-25T06:21:27.522Z,78.10
2023-01-25T06:22:27.490Z,76.50
2023-01-25T06:23:27.484Z,81.00
2023-01-25T06:24:27.709Z,80.70
2023-01-25T06:25:27.528Z,78.90
2023-01-25T06:26:27.501Z,80.20
2023-01-25T06:27:27.491Z,78.90
2023-01-25T06:28:27.498Z,75.30
2023-01-25T06:29:27.485Z,67.90
2023-01-25T06:30:27.475Z,61.80
2023-01-25T06:31:27.649Z,59.50
2023-01-25T06:32:27.377Z,59.90
2023-01-25T06:33:27.390Z,60.50
2023-01-25T06:34:27.395Z,62.70
2023-01-25T06:35:27.459Z,66.20
2023-01-25T06:36:27.406Z,64.70
2023-01-25T06:37:27.440Z,71.60
2023-01-25T06:38:27.347Z,74.30
2023-01-25T06:39:27.368Z,76.40
2023-01-25T06:40:27.300Z,74.80
2023-01-25T06:41:27.388Z,74.50
2023-01-25T06:42:27.291Z,79.90
2023-01-25T06:43:27.336Z,79.90
2023-01-25T06:44:27.335Z,84.80
2023-01-25T06:45:27.283Z,80.90
2023-01-25T06:46:27.367Z,79.60
2023-01-25T06:47:27.248Z,82.90
2023-01-25T06:48:27.285Z,77.90
2023-01-25T06:49:27.248Z,79.40
2023-01-25T06:50:27.348Z,78.70
2023-01-25T06:51:27.292Z,76.50
2023-01-25T06:52:27.214Z,76.30
2023-01-25T06:53:27.149Z,75.40
2023-01-25T06:54:27.258Z,77.10
2023-01-25T06:55:27.281Z,78.90
2023-01-25T06:56:27.264Z,82.80
2023-01-25T06:57:27.240Z,79.10
2023-01-25T06:58:27.204Z,70.70
2023-01-25T06:59:27.160Z,70.40
2023-01-25T07:00:27.123Z,65.80
2023-01-25T07:01:27.400Z,66.70
2023-01-25T07:02:27.233Z,67.10
2023-01-25T07:03:27.207Z,67.00
2023-01-25T07:04:27.173Z,68.70
2023-01-25T07:05:27.037Z,70.50
2023-01-25T07:06:27.531Z,68.20
2023-01-25T07:07:27.162Z,67.80
2023-01-25T07:08:27.044Z,70.70
2023-01-25T07:09:27.010Z,69.30
2023-01-25T07:10:26.995Z,73.10
2023-01-25T07:11:27.072Z,71.10
2023-01-25T07:12:27.010Z,70.80
2023-01-25T07:13:26.995Z,74.60
2023-01-25T07:14:27.153Z,71.20
2023-01-25T07:15:26.921Z,72.60
2023-01-25T07:16:27.092Z,74.10
2023-01-25T07:17:26.906Z,72.70
2023-01-25T07:18:26.919Z,73.30
2023-01-25T07:19:26.929Z,74.60
2023-01-25T07:20:26.845Z,73.10
2023-01-25T07:21:26.883Z,74.70
2023-01-25T07:22:26.892Z,72.80
2023-01-25T07:23:26.862Z,73.40
2023-01-25T07:24:26.936Z,73.30
2023-01-25T07:25:26.899Z,74.00
2023-01-25T07:26:26.864Z,74.10
2023-01-25T07:27:26.849Z,79.30
2023-01-25T07:28:26.893Z,76.60
2023-01-25T07:29:26.777Z,74.60
2023-01-25T07:30:26.779Z,75.30
2023-01-25T07:31:26.893Z,73.50
2023-01-25T07:32:26.794Z,74.10
2023-01-25T07:33:26.853Z,69.80
2023-01-25T07:34:26.708Z,70.60
2023-01-25T07:35:26.768Z,67.30
2023-01-25T07:36:26.771Z,68.00
2023-01-25T07:37:26.724Z,67.80
2023-01-25T07:38:26.702Z,72.00
2023-01-25T07:39:26.718Z,71.90
2023-01-25T07:40:26.732Z,76.50
2023-01-25T07:41:26.700Z,73.70
2023-01-25T07:42:26.795Z,76.40
2023-01-25T07:43:26.647Z,73.70
2023-01-25T07:44:26.624Z,73.50
2023-01-25T07:45:26.656Z,75.50
2023-01-25T07:46:26.625Z,75.60
2023-01-25T07:47:26.694Z,80.80
2023-01-25T07:48:26.640Z,78.70
2023-01-25T07:49:26.596Z,81.10
2023-01-25T07:50:26.803Z,75.80
2023-01-25T07:51:26.608Z,75.00
2023-01-25T07:52:26.628Z,76.70
2023-01-25T07:53:26.728Z,75.00
2023-01-25T07:54:26.573Z,76.00
2023-01-25T07:55:26.674Z,79.00
2023-01-25T07:56:26.513Z,76.70
2023-01-25T07:57:26.575Z,70.50
2023-01-25T07:58:26.556Z,73.40
2023-01-25T07:59:26.539Z,70.40
2023-01-25T08:00:26.546Z,80.20
2023-01-25T08:01:26.479Z,82.90
2023-01-25T08:02:26.576Z,81.50
2023-01-25T08:03:26.492Z,76.80
2023-01-25T08:04:26.459Z,80.90
2023-01-25T08:05:26.459Z,79.00
2023-01-25T08:06:26.407Z,76.50
2023-01-25T08:07:26.375Z,77.00
2023-01-25T08:08:26.392Z,80.50
2023-01-25T08:09:26.519Z,78.00
2023-01-25T08:10:26.364Z,78.10
2023-01-25T08:11:26.409Z,79.80
2023-01-25T08:12:26.397Z,82.80
2023-01-25T08:13:26.403Z,78.70
2023-01-25T08:14:26.334Z,82.10
2023-01-25T08:15:26.337Z,83.10
2023-01-25T08:16:26.299Z,87.90
2023-01-25T08:17:26.303Z,88.10
2023-01-25T08:18:26.340Z,84.80
2023-01-25T08:19:27.504Z,84.20
2023-01-25T08:20:26.273Z,83.30
2023-01-25T08:21:26.227Z,84.70
2023-01-25T08:22:26.271Z,86.20
2023-01-25T08:23:26.349Z,88.80
2023-01-25T08:24:26.312Z,86.00
2023-01-25T08:25:26.355Z,85.20
2023-01-25T08:26:26.239Z,84.60
2023-01-25T08:27:26.474Z,86.50
2023-01-25T08:28:26.271Z,79.30
2023-01-25T08:29:26.183Z,81.00
2023-01-25T08:30:26.157Z,86.20
2023-01-25T08:31:26.219Z,82.80
2023-01-25T08:32:26.170Z,85.30
2023-01-25T08:33:26.143Z,79.90
2023-01-25T08:34:26.137Z,81.20
2023-01-25T08:35:26.128Z,85.00
2023-01-25T08:36:26.112Z,83.10
2023-01-25T08:37:26.054Z,80.40
2023-01-25T08:38:26.195Z,79.20
2023-01-25T08:39:26.100Z,85.20
2023-01-25T08:40:26.107Z,88.70
2023-01-25T08:41:26.101Z,87.30
2023-01-25T08:42:26.076Z,84.70
2023-01-25T08:43:26.061Z,86.50
2023-01-25T08:44:26.028Z,83.40
2023-01-25T08:45:26.041Z,85.30
2023-01-25T08:46:25.983Z,79.30
2023-01-25T08:47:26.061Z,81.80
2023-01-25T08:48:26.072Z,84.30
2023-01-25T08:49:26.026Z,84.10
2023-01-25T08:50:25.998Z,84.30
2023-01-25T08:51:26.069Z,82.20
2023-01-25T08:52:25.934Z,80.50
2023-01-25T08:53:25.917Z,77.50
2023-01-25T08:54:25.972Z,77.30
2023-01-25T08:55:25.922Z,82.40
2023-01-25T08:56:25.996Z,83.00
2023-01-25T08:57:25.915Z,81.70
2023-01-25T08:58:25.888Z,82.70
2023-01-25T08:59:25.886Z,82.50
2023-01-25T09:00:25.900Z,83.80
2023-01-25T09:01:26.037Z,81.70
2023-01-25T09:02:25.898Z,86.00
2023-01-25T09:03:25.936Z,78.10
2023-01-25T09:04:25.840Z,80.70
2023-01-25T09:05:25.887Z,81.50
2023-01-25T09:06:25.889Z,88.20
2023-01-25T09:07:25.833Z,81.80
2023-01-25T09:08:25.817Z,86.30
2023-01-25T09:09:25.783Z,82.00
2023-01-25T09:10:25.772Z,85.80
2023-01-25T09:11:25.904Z,81.90
2023-01-25T09:12:25.748Z,86.50
2023-01-25T09:13:25.749Z,84.10
2023-01-25T09:14:25.751Z,82.90
2023-01-25T09:15:25.847Z,84.70
2023-01-25T09:16:25.767Z,80.80
2023-01-25T09:17:25.758Z,84.70
2023-01-25T09:18:25.727Z,79.20
2023-01-25T09:19:25.861Z,82.40
2023-01-25T09:20:25.733Z,83.80
2023-01-25T09:21:25.793Z,87.40
2023-01-25T09:22:25.700Z,80.60
2023-01-25T09:23:25.597Z,84.50
2023-01-25T09:24:25.687Z,88.40
2023-01-25T09:25:25.696Z,80.70
2023-01-25T09:26:25.680Z,86.80
2023-01-25T09:27:25.713Z,86.60
2023-01-25T09:28:25.670Z,82.80
2023-01-25T09:29:25.600Z,86.80
2023-01-25T09:30:37.339Z,82.10
2023-01-25T09:31:27.327Z,85.10
2023-01-25T09:32:25.683Z,79.80
2023-01-25T09:33:25.517Z,83.10
2023-01-25T09:34:25.674Z,83.90
2023-01-25T09:35:25.534Z,84.00
2023-01-25T09:36:25.610Z,82.20
2023-01-25T09:37:25.574Z,84.30
2023-01-25T09:38:25.445Z,84.70
2023-01-25T09:39:25.571Z,82.80
2023-01-25T09:40:25.619Z,89.50
2023-01-25T09:41:25.539Z,86.70
2023-01-25T09:42:25.576Z,87.60
2023-01-25T09:43:25.545Z,92.80
2023-01-25T09:44:25.460Z,89.30
2023-01-25T09:45:25.423Z,92.30
2023-01-25T09:46:25.592Z,90.80
2023-01-25T09:47:25.591Z,93.90
2023-01-25T09:48:25.447Z,93.10
2023-01-25T09:49:25.388Z,93.90
2023-01-25T09:50:25.435Z,94.90
2023-01-25T09:51:25.351Z,92.80
2023-01-25T09:52:25.497Z,93.60
2023-01-25T09:53:25.398Z,90.20
2023-01-25T09:54:25.530Z,91.20
2023-01-25T09:55:25.335Z,89.30
2023-01-25T09:56:25.385Z,87.30
2023-01-25T09:57:25.265Z,85.10
2023-01-25T09:58:25.343Z,88.20
2023-01-25T09:59:25.279Z,89.00
2023-01-25T10:00:25.275Z,92.50
2023-01-25T10:01:37.716Z,92.10
2023-01-25T10:02:25.311Z,92.20
2023-01-25T10:03:25.264Z,90.90
2023-01-25T10:04:25.217Z,89.10
2023-01-25T10:05:25.268Z,88.40
2023-01-25T10:06:25.264Z,91.10
2023-01-25T10:07:25.185Z,86.50
2023-01-25T10:08:25.186Z,88.60
2023-01-25T10:09:25.164Z,87.70
2023-01-25T10:10:25.200Z,93.60
2023-01-25T10:11:25.174Z,90.20
2023-01-25T10:12:25.117Z,84.10
2023-01-25T10:13:25.141Z,91.60
2023-01-25T10:14:25.116Z,86.80
2023-01-25T10:15:25.079Z,86.80
2023-01-25T10:16:26.206Z,89.40
2023-01-25T10:17:25.135Z,89.90
2023-01-25T10:18:25.062Z,93.60
2023-01-25T10:19:25.142Z,95.70
2023-01-25T10:20:25.161Z,90.90
2023-01-25T10:21:25.061Z,91.70
2023-01-25T10:22:25.071Z,92.70
2023-01-25T10:23:25.109Z,89.10
2023-01-25T10:24:25.028Z,87.00
2023-01-25T10:25:25.153Z,87.60
2023-01-25T10:26:25.019Z,87.30
2023-01-25T10:27:25.051Z,86.70
2023-01-25T10:28:25.063Z,90.20
2023-01-25T10:29:24.975Z,93.60
2023-01-25T10:30:24.996Z,86.10
2023-01-25T10:31:25.012Z,88.60
2023-01-25T10:32:24.935Z,86.90
2023-01-25T10:33:25.049Z,85.00
2023-01-25T10:34:24.978Z,84.20
2023-01-25T10:35:34.905Z,86.70
2023-01-25T10:36:24.919Z,86.70
2023-01-25T10:37:24.988Z,85.00
2023-01-25T10:38:24.975Z,85.60
2023-01-25T10:39:24.891Z,87.20
2023-01-25T10:40:24.878Z,87.70
2023-01-25T10:41:24.863Z,87.30
2023-01-25T10:42:24.834Z,87.60
2023-01-25T10:43:24.931Z,90.70
2023-01-25T10:44:24.862Z,85.30
2023-01-25T10:45:24.825Z,83.10
2023-01-25T10:46:24.907Z,82.80
2023-01-25T10:47:24.854Z,82.40
2023-01-25T10:48:25.167Z,82.30
2023-01-25T10:49:24.801Z,84.20
2023-01-25T10:50:24.760Z,83.20
2023-01-25T10:51:24.766Z,86.30
2023-01-25T10:52:24.765Z,82.20
2023-01-25T10:53:24.749Z,79.80
2023-01-25T10:54:24.708Z,81.60
2023-01-25T10:55:24.691Z,80.30
2023-01-25T10:56:24.743Z,83.40
2023-01-25T10:57:24.721Z,81.50
2023-01-25T10:58:24.693Z,77.80
2023-01-25T10:59:24.664Z,81.50
2023-01-25T11:00:24.728Z,87.60
2023-01-25T11:01:24.702Z,83.50
2023-01-25T11:02:24.696Z,82.70
2023-01-25T11:03:24.625Z,81.40
2023-01-25T11:04:24.638Z,82.20
2023-01-25T11:05:24.665Z,82.40
2023-01-25T11:06:24.736Z,80.80
2023-01-25T11:07:24.605Z,80.70
2023-01-25T11:08:24.632Z,80.90
2023-01-25T11:09:24.577Z,77.50
2023-01-25T11:10:24.525Z,78.30
2023-01-25T11:11:24.612Z,81.20
2023-01-25T11:12:24.597Z,79.60
2023-01-25T11:13:24.655Z,80.10
2023-01-25T11:14:24.495Z,75.60
2023-01-25T11:15:24.600Z,77.30
2023-01-25T11:16:24.567Z,77.50
2023-01-25T11:17:24.488Z,76.80
2023-01-25T11:18:24.493Z,72.40
2023-01-25T11:19:24.455Z,69.60
2023-01-25T11:20:24.533Z,73.20
2023-01-25T11:21:24.492Z,72.50
2023-01-25T11:22:24.433Z,80.50
2023-01-25T11:23:24.495Z,75.40
2023-01-25T11:24:24.454Z,78.20
2023-01-25T11:25:24.463Z,74.50
2023-01-25T11:26:24.492Z,75.10
2023-01-25T11:27:24.377Z,75.90
2023-01-25T11:28:24.409Z,71.50
2023-01-25T11:29:26.244Z,77.00
2023-01-25T11:30:24.401Z,74.20
2023-01-25T11:31:24.496Z,81.50
2023-01-25T11:32:24.360Z,77.00
2023-01-25T11:33:24.371Z,77.30
2023-01-25T11:34:24.347Z,76.70
2023-01-25T11:35:24.312Z,72.50
2023-01-25T11:36:24.308Z,77.70
2023-01-25T11:37:24.303Z,76.80
2023-01-25T11:38:24.336Z,76.30
2023-01-25T11:39:24.272Z,75.00
2023-01-25T11:40:24.254Z,71.80
2023-01-25T11:41:24.349Z,73.00
2023-01-25T11:42:24.380Z,77.80
2023-01-25T11:43:24.211Z,73.90
2023-01-25T11:44:24.217Z,76.80
2023-01-25T11:45:24.313Z,75.50
2023-01-25T11:46:24.267Z,77.60
2023-01-25T11:47:24.175Z,75.20
2023-01-25T11:48:24.156Z,72.80
2023-01-25T11:49:24.206Z,75.70
2023-01-25T11:50:24.157Z,74.00
2023-01-25T11:51:24.188Z,73.70
2023-01-25T11:52:24.172Z,72.50
2023-01-25T11:53:24.118Z,72.70
2023-01-25T11:54:24.091Z,74.70
2023-01-25T11:55:24.083Z,74.20
2023-01-25T11:56:24.157Z,77.10
2023-01-25T11:57:24.126Z,74.90
2023-01-25T11:58:24.094Z,72.90
2023-01-25T11:59:24.055Z,77.50
2023-01-25T12:00:24.034Z,77.10
2023-01-25T12:01:24.073Z,80.60
2023-01-25T12:02:24.178Z,83.50
2023-01-25T12:03:24.127Z,83.30
2023-01-25T12:04:24.049Z,75.30
2023-01-25T12:05:24.173Z,79.10
2023-01-25T12:06:24.007Z,80.10
2023-01-25T12:07:23.997Z,77.30
2023-01-25T12:08:23.977Z,77.40
2023-01-25T12:09:24.076Z,80.70
2023-01-25T12:10:23.985Z,77.10
2023-01-25T12:11:24.033Z,81.40
2023-01-25T12:12:24.066Z,77.90
2023-01-25T12:13:23.992Z,76.10
2023-01-25T12:14:24.023Z,75.20
2023-01-25T12:15:23.978Z,76.00
2023-01-25T12:16:23.933Z,78.10
2023-01-25T12:17:23.910Z,77.80
2023-01-25T12:18:23.933Z,73.70
2023-01-25T12:19:23.908Z,72.50
2023-01-25T12:20:23.906Z,70.50
2023-01-25T12:21:31.240Z,76.10
2023-01-25T12:22:23.992Z,73.30
2023-01-25T12:23:23.929Z,78.90
2023-01-25T12:24:23.924Z,79.30
2023-01-25T12:25:23.804Z,83.80
2023-01-25T12:26:23.776Z,83.70
2023-01-25T12:27:25.927Z,85.70
2023-01-25T12:28:23.771Z,82.70
2023-01-25T12:29:23.723Z,83.40
2023-01-25T12:30:23.772Z,86.10
2023-01-25T12:31:23.954Z,83.50
2023-01-25T12:32:23.715Z,82.10
2023-01-25T12:33:23.789Z,84.30
2023-01-25T12:34:23.759Z,84.40
2023-01-25T12:35:23.704Z,85.10
2023-01-25T12:36:23.685Z,86.70
2023-01-25T12:37:23.768Z,86.20
2023-01-25T12:38:23.784Z,83.50
2023-01-25T12:39:23.651Z,81.70
2023-01-25T12:40:23.656Z,80.50
2023-01-25T12:41:23.613Z,85.30
2023-01-25T12:42:23.678Z,86.60
2023-01-25T12:43:23.641Z,83.20
2023-01-25T12:44:23.605Z,87.00
2023-01-25T12:45:23.624Z,87.40
2023-01-25T12:46:23.631Z,83.10
2023-01-25T12:47:23.616Z,87.10
2023-01-25T12:48:23.545Z,87.20
2023-01-25T12:49:23.548Z,88.60
2023-01-25T12:50:23.565Z,87.90
2023-01-25T12:51:23.537Z,87.90
2023-01-25T12:52:23.572Z,86.60
2023-01-25T12:53:23.508Z,88.10
2023-01-25T12:54:23.642Z,88.20